Terminal Aerodrome Forecast
Issued by NWS Blacksburg, VA

Current Version | Previous Version | Graphics & Text | Print | Product List | Glossary On
Versions: 1 2 3 4 5 6 7 8 9 10 11 12 13 14 15
000
FTUS41 KRNK 191140
TAFBLF
TAF
KBLF 191140Z 1912/2012 VRB03KT 6SM BR SCT002
      TEMPO 1912/1913 3SM BR
     FM191330 VRB04KT P6SM SCT045
     FM200100 00000KT P6SM SKC=

USA.gov is the U.S. government's official web portal to all federal, state and local government web resources and services.